Terminal Aerodrome Forecast
Issued by NWS

Home | Current Version | Previous Version | Text Only | Print | Product List | Glossary On
Versions: 1 2 3 4 5 6 7 8 9 10 11 12 13 14 15 16 17
000
FTAK31 PAJN 171100
TAFAKT
TAF
PAKT 171134Z 1712/1812 17010KT P6SM -RA FEW020 OVC030 WS020/14045KT
     FM171600 14010G20KT P6SM -RA BKN020 OVC030
     FM172000 14015G25KT P6SM -RA BKN020 OVC030
     FM180300 15012KT 6SM -RA BR BKN015 OVC025
     FM180900 16008KT P6SM -RA BKN025 OVC040
      AMD LTD TO CLD VIS AND WIND 1712/1715=

USA.gov is the U.S. government's official web portal to all federal, state and local government web resources and services.